createdAt,value
2022-12-08T00:01:20.739Z,80.26
2022-12-08T00:03:48.279Z,80.56
2022-12-08T00:06:43.780Z,80.37
2022-12-08T00:09:38.169Z,80.40
2022-12-08T00:12:11.605Z,80.39
2022-12-08T00:14:43.474Z,80.43
2022-12-08T00:17:12.067Z,80.68
2022-12-08T00:19:39.948Z,80.34
2022-12-08T00:22:08.420Z,80.67
2022-12-08T00:24:40.534Z,80.80
2022-12-08T00:27:08.636Z,80.61
2022-12-08T00:29:35.146Z,80.75
2022-12-08T00:32:01.837Z,80.68
2022-12-08T00:34:28.474Z,81.10
2022-12-08T00:36:55.072Z,80.96
2022-12-08T00:39:21.770Z,81.00
2022-12-08T00:42:06.714Z,80.67
2022-12-08T00:44:33.265Z,80.97
2022-12-08T00:46:59.785Z,80.78
2022-12-08T00:49:26.526Z,81.22
2022-12-08T00:51:53.212Z,80.81
2022-12-08T00:54:20.274Z,80.66
2022-12-08T00:56:46.858Z,81.23
2022-12-08T00:59:13.378Z,80.68
2022-12-08T01:01:40.042Z,80.95
2022-12-08T01:04:08.623Z,80.79
2022-12-08T01:06:36.202Z,80.00
2022-12-08T01:09:04.633Z,80.86
2022-12-08T01:11:31.629Z,80.85
2022-12-08T01:13:58.306Z,81.38
2022-12-08T01:16:27.818Z,80.92
2022-12-08T01:18:55.016Z,81.18
2022-12-08T01:21:22.007Z,80.66
2022-12-08T01:23:48.582Z,80.85
2022-12-08T01:26:16.921Z,80.93
2022-12-08T01:28:44.446Z,80.17
2022-12-08T01:31:16.696Z,80.50
2022-12-08T01:33:43.913Z,80.59
2022-12-08T01:36:20.679Z,79.98
2022-12-08T01:38:47.509Z,80.56
2022-12-08T01:41:19.420Z,80.19
2022-12-08T01:44:00.985Z,80.71
2022-12-08T01:46:30.715Z,80.13
2022-12-08T01:49:05.266Z,80.21
2022-12-08T01:51:38.395Z,80.67
2022-12-08T01:54:06.926Z,80.57
2022-12-08T01:56:58.876Z,80.59
2022-12-08T01:59:26.915Z,79.72
2022-12-08T02:01:53.613Z,80.31
2022-12-08T02:04:20.334Z,79.85
2022-12-08T02:06:49.579Z,79.86
2022-12-08T02:09:16.781Z,79.89
2022-12-08T02:11:43.287Z,80.08
2022-12-08T02:14:13.516Z,79.92
2022-12-08T02:16:57.926Z,80.17
2022-12-08T02:20:02.567Z,80.17
2022-12-08T02:22:52.198Z,80.86
2022-12-08T02:25:49.723Z,81.25
2022-12-08T02:28:38.094Z,81.28
2022-12-08T02:31:34.643Z,80.91
2022-12-08T02:34:30.473Z,81.38
2022-12-08T02:37:06.032Z,80.92
2022-12-08T02:39:35.465Z,80.48
2022-12-08T02:42:08.498Z,81.12
2022-12-08T02:45:00.244Z,81.55
2022-12-08T02:47:28.144Z,80.59
2022-12-08T02:49:59.046Z,81.03
2022-12-08T02:52:25.522Z,81.15
2022-12-08T02:54:59.528Z,80.79
2022-12-08T02:57:56.137Z,80.88
2022-12-08T03:00:25.251Z,80.86
2022-12-08T03:03:09.972Z,80.92
2022-12-08T03:06:09.330Z,80.64
2022-12-08T03:08:41.818Z,80.90
2022-12-08T03:11:15.077Z,80.65
2022-12-08T03:13:46.350Z,80.91
2022-12-08T03:16:17.478Z,81.33
2022-12-08T03:18:49.535Z,80.95
2022-12-08T03:21:19.438Z,80.42
2022-12-08T03:23:49.633Z,80.64
2022-12-08T03:26:31.809Z,80.43
2022-12-08T03:28:58.716Z,80.63
2022-12-08T03:31:29.033Z,81.19
2022-12-08T03:33:58.497Z,80.62
2022-12-08T03:36:26.091Z,81.01
2022-12-08T03:38:54.238Z,80.59
2022-12-08T03:41:22.661Z,80.87
2022-12-08T03:43:54.290Z,80.89
2022-12-08T03:48:48.533Z,80.82
2022-12-08T03:51:15.749Z,80.86
2022-12-08T03:53:42.609Z,80.40
2022-12-08T03:56:26.289Z,80.57
2022-12-08T03:58:53.950Z,81.36
2022-12-08T04:01:21.433Z,81.01
2022-12-08T04:03:48.620Z,81.32
2022-12-08T04:06:15.970Z,80.93
2022-12-08T04:08:42.904Z,81.02
2022-12-08T04:11:09.840Z,81.24
2022-12-08T04:13:38.340Z,81.00
2022-12-08T04:16:05.994Z,80.50
2022-12-08T04:18:33.503Z,81.22
2022-12-08T04:21:00.142Z,80.54
2022-12-08T04:23:26.807Z,81.08
2022-12-08T04:25:53.823Z,80.94
2022-12-08T04:28:20.519Z,80.57
2022-12-08T04:30:48.327Z,80.57
2022-12-08T04:33:15.014Z,80.77
2022-12-08T04:35:41.634Z,80.96
2022-12-08T04:38:08.286Z,81.27
2022-12-08T04:40:34.942Z,80.86
2022-12-08T04:43:01.467Z,80.98
2022-12-08T04:45:27.981Z,80.85
2022-12-08T04:47:54.555Z,80.81
2022-12-08T04:50:21.299Z,80.98
2022-12-08T04:52:48.094Z,81.20
2022-12-08T04:55:14.753Z,80.88
2022-12-08T04:57:41.286Z,80.80
2022-12-08T05:00:08.786Z,81.45
2022-12-08T05:02:35.910Z,81.46
2022-12-08T05:05:02.496Z,81.36
2022-12-08T05:07:29.049Z,81.27
2022-12-08T05:09:55.716Z,81.03
2022-12-08T05:12:22.237Z,81.32
2022-12-08T05:14:48.819Z,81.01
2022-12-08T05:17:17.168Z,81.49
2022-12-08T05:19:44.137Z,81.27
2022-12-08T05:22:11.164Z,80.52
2022-12-08T05:24:42.501Z,81.10
2022-12-08T05:27:12.462Z,81.32
2022-12-08T05:29:39.000Z,81.32
2022-12-08T05:32:05.832Z,81.13
2022-12-08T05:34:32.482Z,81.04
2022-12-08T05:36:59.037Z,81.12
2022-12-08T05:39:25.674Z,80.36
2022-12-08T05:41:52.187Z,80.79
2022-12-08T05:44:18.751Z,81.14
2022-12-08T05:46:45.400Z,80.91
2022-12-08T05:49:11.963Z,81.40
2022-12-08T05:51:38.518Z,80.89
2022-12-08T05:54:05.197Z,81.30
2022-12-08T05:56:31.714Z,81.42
2022-12-08T05:58:58.392Z,80.96
2022-12-08T06:01:30.719Z,80.94
2022-12-08T06:03:59.891Z,81.21
2022-12-08T06:06:27.038Z,81.10
2022-12-08T06:08:53.905Z,81.16
2022-12-08T06:11:26.223Z,81.84
2022-12-08T06:13:53.886Z,81.89
2022-12-08T06:16:20.550Z,81.55
2022-12-08T06:18:47.507Z,81.34
2022-12-08T06:21:15.477Z,81.95
2022-12-08T06:23:42.802Z,81.65
2022-12-08T06:26:12.370Z,81.48
2022-12-08T06:28:39.773Z,82.23
2022-12-08T06:31:11.084Z,81.59
2022-12-08T06:33:38.449Z,81.97
2022-12-08T06:36:06.266Z,81.51
2022-12-08T06:38:33.409Z,81.49
2022-12-08T06:41:00.660Z,81.54
2022-12-08T06:43:27.720Z,81.57
2022-12-08T06:45:54.355Z,81.50
2022-12-08T06:48:21.111Z,81.19
2022-12-08T06:50:47.609Z,81.82
2022-12-08T06:53:15.220Z,81.29
2022-12-08T06:56:01.812Z,81.84
2022-12-08T06:58:28.587Z,80.92
2022-12-08T07:00:55.324Z,80.68
2022-12-08T07:03:22.150Z,81.60
2022-12-08T07:05:49.221Z,81.87
2022-12-08T07:08:15.890Z,81.64
2022-12-08T07:10:42.781Z,81.08
2022-12-08T07:13:09.409Z,80.69
2022-12-08T07:15:35.926Z,80.86
2022-12-08T07:18:02.506Z,81.02
2022-12-08T07:20:29.259Z,81.39
2022-12-08T07:22:56.142Z,81.65
2022-12-08T07:25:23.212Z,81.67
2022-12-08T07:27:51.622Z,81.25
2022-12-08T07:30:18.502Z,80.93
2022-12-08T07:32:45.467Z,81.26
2022-12-08T07:35:12.056Z,80.97
2022-12-08T07:37:38.897Z,81.20
2022-12-08T07:40:07.666Z,81.23
2022-12-08T07:42:34.684Z,81.23
2022-12-08T07:45:01.302Z,80.87
2022-12-08T07:47:27.875Z,81.42
2022-12-08T07:49:54.380Z,81.08
2022-12-08T07:52:20.986Z,81.17
2022-12-08T07:54:47.533Z,81.04
2022-12-08T07:57:14.159Z,80.95
2022-12-08T07:59:40.677Z,81.30
2022-12-08T08:02:24.017Z,81.06
2022-12-08T08:04:51.852Z,80.71
2022-12-08T08:07:18.414Z,80.91
2022-12-08T08:09:45.752Z,81.39
2022-12-08T08:15:04.096Z,81.46
2022-12-08T08:17:30.848Z,81.53
2022-12-08T08:19:57.949Z,81.56
2022-12-08T08:22:25.426Z,81.34
2022-12-08T08:24:52.278Z,81.45
2022-12-08T08:27:19.556Z,81.90
2022-12-08T08:29:46.146Z,82.15
2022-12-08T08:32:12.731Z,81.97
2022-12-08T08:34:39.464Z,81.99
2022-12-08T08:37:06.131Z,82.31
2022-12-08T08:39:32.866Z,82.18
2022-12-08T08:41:59.413Z,82.20
2022-12-08T08:44:25.947Z,82.17
2022-12-08T08:46:52.637Z,82.16
2022-12-08T08:49:20.155Z,82.50
2022-12-08T08:51:46.877Z,82.11
2022-12-08T08:54:13.760Z,82.13
2022-12-08T08:56:40.286Z,82.52
2022-12-08T08:59:06.823Z,82.14
2022-12-08T09:01:33.954Z,82.12
2022-12-08T09:04:01.448Z,82.44
2022-12-08T09:06:28.559Z,82.35
2022-12-08T09:08:55.404Z,82.43
2022-12-08T09:11:23.619Z,82.19
2022-12-08T09:13:51.737Z,82.49
2022-12-08T09:16:22.322Z,83.20
2022-12-08T09:18:51.792Z,82.48
2022-12-08T09:21:23.078Z,82.51
2022-12-08T09:23:51.413Z,82.78
2022-12-08T09:26:18.660Z,83.33
2022-12-08T09:28:46.842Z,83.21
2022-12-08T09:31:14.700Z,83.39
2022-12-08T09:33:41.839Z,82.97
2022-12-08T09:36:09.074Z,82.90
2022-12-08T09:38:36.001Z,83.28
2022-12-08T09:41:07.774Z,82.98
2022-12-08T09:43:55.802Z,83.57
2022-12-08T09:46:22.595Z,83.08
2022-12-08T09:48:57.005Z,83.81
2022-12-08T09:51:31.650Z,83.25
2022-12-08T09:54:11.984Z,83.52
2022-12-08T09:56:39.528Z,83.73
2022-12-08T09:59:09.218Z,83.70
2022-12-08T10:01:41.669Z,83.37
2022-12-08T10:04:28.936Z,83.59
2022-12-08T10:06:58.434Z,83.96
2022-12-08T10:09:41.558Z,83.83
2022-12-08T10:12:20.145Z,83.46
2022-12-08T10:15:16.769Z,83.24
2022-12-08T10:17:51.125Z,83.34
2022-12-08T10:20:26.490Z,83.32
2022-12-08T10:23:07.521Z,82.85
2022-12-08T10:25:39.315Z,83.01
2022-12-08T10:28:05.826Z,83.00
2022-12-08T10:30:32.486Z,83.45
2022-12-08T10:32:59.814Z,83.37
2022-12-08T10:35:43.315Z,83.38
2022-12-08T10:38:17.903Z,83.65
2022-12-08T10:40:46.661Z,83.36
2022-12-08T10:43:18.713Z,83.58
2022-12-08T10:45:45.384Z,83.60
2022-12-08T10:48:19.323Z,82.92
2022-12-08T10:50:57.080Z,83.29
2022-12-08T10:53:29.469Z,82.81
2022-12-08T10:56:02.070Z,82.79
2022-12-08T10:58:43.019Z,82.41
2022-12-08T11:01:20.114Z,81.79
2022-12-08T11:03:58.338Z,82.04
2022-12-08T11:06:39.165Z,81.46
2022-12-08T11:09:18.052Z,80.96
2022-12-08T11:11:46.144Z,80.77
2022-12-08T11:14:19.566Z,80.88
2022-12-08T11:16:46.252Z,79.85
2022-12-08T11:19:18.326Z,79.47
2022-12-08T11:21:46.112Z,79.57
2022-12-08T11:24:15.986Z,78.25
2022-12-08T11:27:04.525Z,74.71
2022-12-08T11:29:35.336Z,76.41
2022-12-08T11:32:04.605Z,75.89
2022-12-08T11:34:41.916Z,77.19
2022-12-08T11:37:34.644Z,75.51
2022-12-08T11:40:07.514Z,76.52
2022-12-08T11:42:41.671Z,77.60
2022-12-08T11:45:15.963Z,77.10
2022-12-08T11:48:05.936Z,76.42
2022-12-08T11:50:43.042Z,77.52
2022-12-08T11:53:25.004Z,76.66
2022-12-08T11:55:57.715Z,76.69
2022-12-08T11:58:41.432Z,74.42
2022-12-08T12:01:19.194Z,76.81
2022-12-08T12:03:54.469Z,75.83
2022-12-08T12:06:55.178Z,75.06
2022-12-08T12:09:48.626Z,74.66
2022-12-08T12:12:39.632Z,74.04
2022-12-08T12:15:40.284Z,73.35
2022-12-08T12:18:14.848Z,74.15
2022-12-08T12:20:53.239Z,73.53
2022-12-08T12:23:38.842Z,74.81
2022-12-08T12:26:16.699Z,71.88
2022-12-08T12:28:49.817Z,74.35
2022-12-08T12:31:21.803Z,75.48
2022-12-08T12:33:50.059Z,74.11
2022-12-08T12:36:17.276Z,73.37
2022-12-08T12:39:01.364Z,73.80
2022-12-08T12:41:34.353Z,74.30
2022-12-08T12:44:24.305Z,72.01
2022-12-08T12:46:50.892Z,74.29
2022-12-08T12:49:49.768Z,72.50
2022-12-08T12:52:16.209Z,72.96
2022-12-08T12:55:03.810Z,68.22
2022-12-08T12:57:37.364Z,70.84
2022-12-08T13:00:03.881Z,73.41
2022-12-08T13:02:39.985Z,71.19
2022-12-08T13:05:30.848Z,71.75
2022-12-08T13:08:02.067Z,73.73
2022-12-08T13:10:33.248Z,73.05
2022-12-08T13:13:21.016Z,72.61
2022-12-08T13:15:56.615Z,73.08
2022-12-08T13:18:32.256Z,71.58
2022-12-08T13:21:15.009Z,72.81
2022-12-08T13:23:45.938Z,72.79
2022-12-08T13:26:18.408Z,72.86
2022-12-08T13:29:01.337Z,71.53
2022-12-08T13:31:49.831Z,73.68
2022-12-08T13:34:51.781Z,72.60
2022-12-08T13:37:54.428Z,71.37
2022-12-08T13:40:25.419Z,73.78
2022-12-08T13:43:10.591Z,71.29
2022-12-08T13:46:41.987Z,73.14
2022-12-08T13:57:32.761Z,72.46
2022-12-08T14:00:02.323Z,72.70
2022-12-08T14:02:47.774Z,68.57
2022-12-08T14:05:40.676Z,71.97
2022-12-08T14:08:07.088Z,71.18
2022-12-08T14:10:33.642Z,72.82
2022-12-08T14:13:05.538Z,71.79
2022-12-08T14:15:37.756Z,71.71
2022-12-08T14:18:04.682Z,72.33
2022-12-08T14:20:46.526Z,72.53
2022-12-08T14:23:18.763Z,72.16
2022-12-08T14:25:47.979Z,72.83
2022-12-08T14:28:14.591Z,73.00
2022-12-08T14:30:41.248Z,72.54
2022-12-08T14:33:14.687Z,72.93
2022-12-08T14:35:41.498Z,72.40
2022-12-08T14:38:16.858Z,72.78
2022-12-08T14:41:06.780Z,72.69
2022-12-08T14:43:33.619Z,73.24
2022-12-08T14:46:02.890Z,73.30
2022-12-08T14:48:36.342Z,72.27
2022-12-08T14:51:33.252Z,71.55
2022-12-08T14:54:09.916Z,71.76
2022-12-08T14:56:40.427Z,71.97
2022-12-08T14:59:17.523Z,72.60
2022-12-08T15:01:44.974Z,72.18
2022-12-08T15:04:14.773Z,71.87
2022-12-08T15:06:52.966Z,71.86
2022-12-08T15:09:32.443Z,72.26
2022-12-08T15:12:24.724Z,72.13
2022-12-08T15:14:57.680Z,71.84
2022-12-08T15:17:30.229Z,71.56
2022-12-08T15:19:58.239Z,72.16
2022-12-08T15:22:26.638Z,71.89
2022-12-08T15:24:53.925Z,71.78
2022-12-08T15:27:23.103Z,71.92
2022-12-08T15:29:50.529Z,71.89
2022-12-08T15:32:22.290Z,71.62
2022-12-08T15:34:49.061Z,71.95
2022-12-08T15:37:24.061Z,71.51
2022-12-08T15:39:51.274Z,72.14
2022-12-08T15:42:17.874Z,72.23
2022-12-08T15:44:44.567Z,72.01
2022-12-08T15:47:16.765Z,72.04
2022-12-08T15:49:43.891Z,72.63
2022-12-08T15:52:16.207Z,72.80
2022-12-08T15:54:42.832Z,72.66
2022-12-08T16:00:52.820Z,72.52
2022-12-08T16:09:39.055Z,72.84
2022-12-08T16:13:47.982Z,73.19
2022-12-08T16:18:23.191Z,72.65
2022-12-08T16:23:44.968Z,73.79
2022-12-08T16:26:28.646Z,73.97
2022-12-08T16:29:02.980Z,73.68
2022-12-08T16:31:29.648Z,73.82
2022-12-08T16:33:56.270Z,74.33
2022-12-08T16:36:22.807Z,74.56
2022-12-08T16:38:49.323Z,74.93
2022-12-08T16:41:36.072Z,74.56
2022-12-08T16:44:04.154Z,74.21
2022-12-08T16:46:31.048Z,74.16
2022-12-08T16:48:59.066Z,74.72
2022-12-08T16:51:27.363Z,74.95
2022-12-08T16:53:55.332Z,75.13
2022-12-08T16:56:26.184Z,75.37
2022-12-08T16:58:57.136Z,75.25
2022-12-08T17:01:23.968Z,75.53
2022-12-08T17:04:14.246Z,75.36
2022-12-08T17:06:37.194Z,75.06
2022-12-08T17:09:03.962Z,74.89
2022-12-08T17:11:36.275Z,75.63
2022-12-08T17:14:09.207Z,75.65
2022-12-08T17:16:35.913Z,75.83
2022-12-08T17:19:02.554Z,75.94
2022-12-08T17:21:29.123Z,76.00
2022-12-08T17:23:55.757Z,75.57
2022-12-08T17:26:22.364Z,75.44
2022-12-08T17:29:04.256Z,75.40
2022-12-08T17:31:32.572Z,75.92
2022-12-08T17:34:04.325Z,76.22
2022-12-08T17:36:31.361Z,75.89
2022-12-08T17:38:59.460Z,76.22
2022-12-08T17:41:26.112Z,76.26
2022-12-08T17:43:52.710Z,76.70
2022-12-08T17:46:20.607Z,76.72
2022-12-08T17:48:50.181Z,76.54
2022-12-08T17:51:16.732Z,76.51
2022-12-08T17:53:43.391Z,76.29
2022-12-08T17:56:19.793Z,76.88
2022-12-08T17:58:52.630Z,76.81
2022-12-08T18:01:21.399Z,76.57
2022-12-08T18:03:49.235Z,76.62
2022-12-08T18:06:17.567Z,76.50
2022-12-08T18:08:44.439Z,76.35
2022-12-08T18:11:17.906Z,76.96
2022-12-08T18:13:45.852Z,76.81
2022-12-08T18:16:12.531Z,77.25
2022-12-08T18:18:39.560Z,77.38
2022-12-08T18:21:06.965Z,77.10
2022-12-08T18:23:34.806Z,77.20
2022-12-08T18:26:03.175Z,77.10
2022-12-08T18:28:29.713Z,77.33
2022-12-08T18:30:56.356Z,77.65
2022-12-08T18:33:22.949Z,77.90
2022-12-08T18:35:49.493Z,77.55
2022-12-08T18:38:16.081Z,77.52
2022-12-08T18:40:42.753Z,77.35
2022-12-08T18:43:09.297Z,77.86
2022-12-08T18:45:37.018Z,77.54
2022-12-08T18:48:03.822Z,77.79
2022-12-08T18:50:30.367Z,78.19
2022-12-08T18:52:56.998Z,77.85
2022-12-08T18:55:23.699Z,78.06
2022-12-08T18:57:50.296Z,78.06
2022-12-08T19:00:18.668Z,77.89
2022-12-08T19:02:46.806Z,77.64
2022-12-08T19:05:14.171Z,77.64
2022-12-08T19:07:42.547Z,77.93
2022-12-08T19:10:10.328Z,77.97
2022-12-08T19:12:37.033Z,77.86
2022-12-08T19:15:04.264Z,78.15
2022-12-08T19:17:31.049Z,77.67
2022-12-08T19:19:57.567Z,78.01
2022-12-08T19:22:24.158Z,77.99
2022-12-08T19:24:50.705Z,78.17
2022-12-08T19:27:17.299Z,78.12
2022-12-08T19:29:43.800Z,77.79
2022-12-08T19:32:10.402Z,78.30
2022-12-08T19:34:37.032Z,78.46
2022-12-08T19:37:03.874Z,78.28
2022-12-08T19:39:49.252Z,78.56
2022-12-08T19:42:37.325Z,78.24
2022-12-08T19:45:13.235Z,78.47
2022-12-08T19:47:41.163Z,78.38
2022-12-08T19:50:29.324Z,78.43
2022-12-08T19:52:56.383Z,78.50
2022-12-08T19:55:26.249Z,79.04
2022-12-08T19:57:53.440Z,78.57
2022-12-08T20:00:21.287Z,78.65
2022-12-08T20:02:48.522Z,78.96
2022-12-08T20:05:15.626Z,78.91
2022-12-08T20:07:42.910Z,78.72
2022-12-08T20:10:16.497Z,78.58
2022-12-08T20:12:43.179Z,79.01
2022-12-08T20:15:10.328Z,78.79
2022-12-08T20:17:38.450Z,78.47
2022-12-08T20:20:07.578Z,78.61
2022-12-08T20:22:34.674Z,78.53
2022-12-08T20:25:02.292Z,78.83
2022-12-08T20:27:29.278Z,78.86
2022-12-08T20:29:55.946Z,78.47
2022-12-08T20:32:22.494Z,78.13
2022-12-08T20:34:49.217Z,78.52
2022-12-08T20:37:15.793Z,78.36
2022-12-08T20:39:42.424Z,79.12
2022-12-08T20:42:12.696Z,78.77
2022-12-08T20:44:43.344Z,78.48
2022-12-08T20:47:11.141Z,78.55
2022-12-08T20:49:38.937Z,78.29
2022-12-08T20:52:05.585Z,79.16
2022-12-08T20:54:32.233Z,79.26
2022-12-08T20:56:58.821Z,79.11
2022-12-08T20:59:26.448Z,78.90
2022-12-08T21:01:53.555Z,78.57
2022-12-08T21:04:21.124Z,78.91
2022-12-08T21:06:48.145Z,79.25
2022-12-08T21:09:15.022Z,79.06
2022-12-08T21:11:41.629Z,78.70
2022-12-08T21:14:08.562Z,78.73
2022-12-08T21:16:35.313Z,79.05
2022-12-08T21:19:02.084Z,78.97
2022-12-08T21:21:28.837Z,79.07
2022-12-08T21:23:55.356Z,78.99
2022-12-08T21:26:25.994Z,78.66
2022-12-08T21:28:54.830Z,79.34
2022-12-08T21:31:22.249Z,79.83
2022-12-08T21:33:49.241Z,79.10
2022-12-08T21:36:19.062Z,79.06
2022-12-08T21:38:48.057Z,79.26
2022-12-08T21:41:37.603Z,79.17
2022-12-08T21:44:05.685Z,79.84
2022-12-08T21:46:33.304Z,79.63
2022-12-08T21:49:00.328Z,79.42
2022-12-08T21:51:27.170Z,79.11
2022-12-08T21:53:54.482Z,78.96
2022-12-08T21:56:21.081Z,79.20
2022-12-08T21:58:47.977Z,79.12
2022-12-08T22:01:14.871Z,79.41
2022-12-08T22:03:42.086Z,79.86
2022-12-08T22:06:12.321Z,79.97
2022-12-08T22:08:39.819Z,80.10
2022-12-08T22:11:08.103Z,79.89
2022-12-08T22:13:36.284Z,79.65
2022-12-08T22:16:05.637Z,80.34
2022-12-08T22:18:33.891Z,79.83
2022-12-08T22:21:00.581Z,79.80
2022-12-08T22:23:28.500Z,80.27
2022-12-08T22:26:02.636Z,79.63
2022-12-08T22:28:33.121Z,79.72
2022-12-08T22:30:59.763Z,79.59
2022-12-08T22:33:29.809Z,79.14
2022-12-08T22:36:08.056Z,79.78
2022-12-08T22:38:36.483Z,80.24
2022-12-08T22:41:05.664Z,79.65
2022-12-08T22:43:33.238Z,79.70
2022-12-08T22:46:00.392Z,79.97
2022-12-08T22:48:27.375Z,80.38
2022-12-08T22:51:01.034Z,80.46
2022-12-08T22:53:27.521Z,80.13
2022-12-08T22:55:54.025Z,79.76
2022-12-08T22:58:20.873Z,79.97
2022-12-08T23:00:47.808Z,79.86
2022-12-08T23:03:14.628Z,79.93
2022-12-08T23:05:41.647Z,80.17
2022-12-08T23:08:09.403Z,80.11
2022-12-08T23:10:36.306Z,79.77
2022-12-08T23:13:04.144Z,79.72
2022-12-08T23:15:31.599Z,79.87
2022-12-08T23:17:58.662Z,80.19
2022-12-08T23:20:25.737Z,79.76
2022-12-08T23:22:53.928Z,80.39
2022-12-08T23:25:20.534Z,80.06
2022-12-08T23:27:47.579Z,79.74
2022-12-08T23:30:15.152Z,80.00
2022-12-08T23:32:42.024Z,79.50
2022-12-08T23:35:09.960Z,79.80
2022-12-08T23:37:36.708Z,79.74
2022-12-08T23:40:04.486Z,80.28
2022-12-08T23:42:31.499Z,79.84
2022-12-08T23:44:58.029Z,79.74
2022-12-08T23:47:25.384Z,80.05
2022-12-08T23:49:52.035Z,79.92
2022-12-08T23:52:18.661Z,79.84
2022-12-08T23:54:45.274Z,79.36
2022-12-08T23:57:11.812Z,79.55
2022-12-08T23:59:38.702Z,79.75
